Time;durP1;ratioP1;P1;durP2;ratioP2;P2;SDS_P1;SDS_P2;PMS_P1;PMS_P2;Temp;Humidity;BMP_temperature;BMP_pressure;BME280_temperature;BME280_humidity;BME280_pressure;Samples;Min_cycle;Max_cycle;Signal;HPM_P1;HPM_P2
2023/09/07 00:01:59;;;;;;;9.63;5.95;;;;;;;19.31;100.00;93456.09;5007279;28;20108;-85
2023/09/07 00:04:26;;;;;;;17.52;10.27;;;;;;;19.42;100.00;93483.72;5009117;28;20053;-78
2023/09/07 00:06:56;;;;;;;14.55;8.82;;;;;;;19.32;100.00;93471.47;5009599;28;20515;-82
2023/09/07 00:09:23;;;;;;;20.80;10.93;;;;;;;19.21;100.00;93477.69;5008330;28;20090;-82
2023/09/07 00:11:50;;;;;;;18.13;11.13;;;;;;;19.05;100.00;93484.66;5006618;28;20085;-80
2023/09/07 00:14:18;;;;;;;17.92;10.10;;;;;;;19.07;100.00;93472.19;5007222;28;20096;-80
2023/09/07 00:16:44;;;;;;;20.08;10.13;;;;;;;19.05;100.00;93479.44;5007334;28;20096;-81
2023/09/07 00:19:11;;;;;;;15.75;9.13;;;;;;;18.86;100.00;93463.47;5007669;28;20500;-80
2023/09/07 00:21:38;;;;;;;14.38;9.30;;;;;;;19.02;100.00;93491.13;5013284;28;20049;-81
2023/09/07 00:24:06;;;;;;;15.75;9.23;;;;;;;19.05;100.00;93488.06;5025812;28;20050;-81
2023/09/07 00:26:33;;;;;;;13.38;8.90;;;;;;;19.06;100.00;93481.81;5025034;28;20495;-81
2023/09/07 00:29:00;;;;;;;12.63;7.30;;;;;;;19.00;100.00;93495.81;5010523;28;20057;-81
2023/09/07 00:31:28;;;;;;;11.98;8.65;;;;;;;18.99;100.00;93489.03;5011202;28;20485;-81
2023/09/07 00:33:54;;;;;;;12.00;8.52;;;;;;;18.98;100.00;93487.47;5012333;28;20088;-81
2023/09/07 00:36:21;;;;;;;12.73;8.93;;;;;;;18.89;100.00;93463.75;5023366;28;20054;-81
2023/09/07 00:38:49;;;;;;;32.80;16.67;;;;;;;18.88;100.00;93477.81;5019843;28;20074;-81
2023/09/07 00:41:16;;;;;;;27.13;13.35;;;;;;;18.79;100.00;93476.75;5009627;28;20100;-81
2023/09/07 00:43:42;;;;;;;27.00;12.70;;;;;;;18.59;100.00;93477.41;5010754;28;20041;-81
2023/09/07 00:46:09;;;;;;;12.80;8.60;;;;;;;18.19;100.00;93475.09;5009414;28;20046;-81
2023/09/07 00:48:39;;;;;;;13.05;9.23;;;;;;;18.20;100.00;93474.09;5012039;28;20054;-82
2023/09/07 00:51:08;;;;;;;15.63;9.90;;;;;;;18.23;100.00;93468.38;5011789;28;20054;-80
2023/09/07 00:53:37;;;;;;;12.50;8.80;;;;;;;18.27;100.00;93472.06;5014893;28;20061;-80
2023/09/07 00:56:08;;;;;;;9.63;7.55;;;;;;;18.08;100.00;93445.69;5013019;28;20073;-80
2023/09/07 00:58:36;;;;;;;11.75;8.57;;;;;;;18.09;100.00;93457.63;5012402;28;20058;-79
2023/09/07 01:01:03;;;;;;;11.07;7.88;;;;;;;18.12;100.00;93453.75;5010474;28;20053;-79
2023/09/07 01:03:30;;;;;;;9.80;7.40;;;;;;;18.06;100.00;93446.94;5010208;28;20052;-79
2023/09/07 01:06:05;;;;;;;9.90;7.32;;;;;;;17.94;100.00;93473.88;5011628;28;20046;-79
2023/09/07 01:08:36;;;;;;;9.95;7.72;;;;;;;17.79;100.00;93453.78;5009852;28;20049;-79
2023/09/07 01:11:13;;;;;;;10.90;7.85;;;;;;;17.93;100.00;93464.53;5010846;28;20050;-79
2023/09/07 01:13:41;;;;;;;9.80;7.80;;;;;;;17.82;100.00;93452.50;5016402;28;20104;-79
2023/09/07 01:16:08;;;;;;;11.68;7.47;;;;;;;17.86;100.00;93462.13;5013294;28;20495;-79
2023/09/07 01:18:37;;;;;;;10.52;7.25;;;;;;;17.85;100.00;93451.97;5009913;28;20054;-80
2023/09/07 01:21:07;;;;;;;11.13;8.18;;;;;;;17.97;100.00;93462.22;5023749;28;20077;-79
2023/09/07 01:23:36;;;;;;;13.18;8.95;;;;;;;18.01;100.00;93464.06;5019344;28;20137;-79
2023/09/07 01:26:03;;;;;;;12.25;8.77;;;;;;;18.06;100.00;93470.31;5019116;28;20050;-79
2023/09/07 01:28:30;;;;;;;11.60;7.88;;;;;;;18.06;100.00;93463.34;5013809;28;20041;-79
2023/09/07 01:30:57;;;;;;;13.32;8.50;;;;;;;18.14;100.00;93465.47;5017193;28;20046;-79
2023/09/07 01:33:27;;;;;;;13.43;9.10;;;;;;;18.20;100.00;93453.31;5021931;28;20128;-79
2023/09/07 01:35:54;;;;;;;12.55;8.27;;;;;;;18.21;100.00;93454.06;5015341;28;20062;-79
2023/09/07 01:38:21;;;;;;;10.73;7.13;;;;;;;18.21;100.00;93467.06;5014512;28;20811;-79
2023/09/07 01:40:49;;;;;;;10.63;8.15;;;;;;;18.03;100.00;93461.22;5011328;28;20053;-79
2023/09/07 01:43:16;;;;;;;18.88;11.93;;;;;;;17.79;100.00;93448.56;5008822;28;20104;-80
2023/09/07 01:45:41;;;;;;;16.38;9.88;;;;;;;17.64;100.00;93459.63;5010214;28;20049;-80
2023/09/07 01:48:13;;;;;;;16.30;10.70;;;;;;;17.63;100.00;93465.84;5009480;28;20060;-79
2023/09/07 01:50:40;;;;;;;14.52;10.20;;;;;;;17.73;100.00;93454.78;5012073;28;20455;-80
2023/09/07 01:53:07;;;;;;;16.70;9.85;;;;;;;17.75;100.00;93465.69;5011651;28;20049;-80
2023/09/07 01:55:34;;;;;;;13.32;9.80;;;;;;;17.61;100.00;93429.75;5026547;28;20053;-81
2023/09/07 01:58:02;;;;;;;14.45;9.75;;;;;;;17.91;100.00;93453.56;5010521;28;20042;-80
2023/09/07 02:00:29;;;;;;;15.27;9.40;;;;;;;17.99;100.00;93458.34;5010920;28;20492;-81
2023/09/07 02:02:56;;;;;;;12.13;8.45;;;;;;;17.86;100.00;93438.75;5009718;28;20049;-80
2023/09/07 02:05:25;;;;;;;13.52;9.27;;;;;;;18.03;100.00;93456.81;5010720;28;20109;-83
2023/09/07 02:07:53;;;;;;;14.93;8.82;;;;;;;18.06;100.00;93467.72;5018668;28;20430;-84
2023/09/07 02:10:23;;;;;;;14.38;9.27;;;;;;;18.08;100.00;93463.09;5018217;28;20049;-83
2023/09/07 02:12:50;;;;;;;12.20;8.98;;;;;;;18.08;100.00;93463.09;4996387;28;20781;-82
2023/09/07 02:15:19;;;;;;;12.30;9.30;;;;;;;17.97;100.00;93449.97;5017448;28;20042;-83
2023/09/07 02:17:52;;;;;;;20.63;10.68;;;;;;;18.02;100.00;93467.44;5018688;28;20455;-83
2023/09/07 02:20:23;;;;;;;13.93;9.63;;;;;;;17.78;100.00;93439.22;5008026;28;20132;-83
2023/09/07 02:22:51;;;;;;;14.50;10.27;;;;;;;17.93;100.00;93463.72;5013892;28;20049;-83
2023/09/07 02:25:18;;;;;;;14.15;10.13;;;;;;;17.80;100.00;93433.75;5016799;28;20052;-83
2023/09/07 02:27:47;;;;;;;15.57;10.27;;;;;;;17.61;100.00;93403.78;5015846;28;20045;-83
2023/09/07 02:30:14;;;;;;;13.35;9.63;;;;;;;18.05;100.00;93455.78;5008307;28;20546;-79
2023/09/07 02:32:44;;;;;;;13.02;9.40;;;;;;;18.07;100.00;93467.50;5012904;28;20046;-81
2023/09/07 02:35:11;;;;;;;13.23;9.73;;;;;;;17.97;100.00;93467.41;5012307;28;20045;-82
2023/09/07 02:37:40;;;;;;;15.82;10.25;;;;;;;17.85;100.00;93477.97;5026067;28;20081;-82
2023/09/07 02:40:12;;;;;;;15.32;10.82;;;;;;;17.73;100.00;93478.16;5027023;28;20077;-81
2023/09/07 02:42:41;;;;;;;14.88;10.30;;;;;;;17.76;100.00;93481.03;5010646;28;20042;-81
2023/09/07 02:45:10;;;;;;;16.17;11.65;;;;;;;17.77;100.00;93487.00;5016396;28;20042;-81
2023/09/07 02:47:37;;;;;;;15.60;10.27;;;;;;;17.83;100.00;93496.41;5007350;28;20050;-81
2023/09/07 02:53:27;;;;;;;14.05;10.05;;;;;;;17.82;100.00;93484.44;5007459;28;20058;-80
2023/09/07 02:55:54;;;;;;;11.95;8.07;;;;;;;17.85;100.00;93483.97;5008605;28;20562;-81
2023/09/07 02:58:21;;;;;;;10.68;7.88;;;;;;;17.77;100.00;93484.41;5009031;28;20053;-80
2023/09/07 03:00:47;;;;;;;12.27;8.85;;;;;;;17.84;100.00;93494.59;5010117;28;20557;-79
2023/09/07 03:03:14;;;;;;;12.77;8.98;;;;;;;17.88;100.00;93480.09;5008315;28;20074;-79
2023/09/07 03:05:42;;;;;;;12.02;8.70;;;;;;;17.81;100.00;93484.72;5008084;28;20108;-79
2023/09/07 03:08:08;;;;;;;10.60;7.60;;;;;;;17.88;100.00;93487.88;5009814;28;20099;-79
2023/09/07 03:10:39;;;;;;;11.18;8.00;;;;;;;17.92;100.00;93494.16;5008225;28;20054;-80
2023/09/07 03:13:06;;;;;;;11.48;8.15;;;;;;;17.91;100.00;93484.75;5008248;28;20041;-80
2023/09/07 03:15:33;;;;;;;10.98;9.23;;;;;;;17.88;100.00;93482.69;5008091;28;20054;-81
2023/09/07 03:18:00;;;;;;;10.02;8.13;;;;;;;17.93;100.00;93485.31;5009527;28;20046;-81
2023/09/07 03:20:27;;;;;;;10.82;8.68;;;;;;;17.79;100.00;93466.75;5009427;28;20049;-81
2023/09/07 03:22:56;;;;;;;11.18;9.00;;;;;;;17.92;100.00;93475.97;5007862;28;20049;-82
2023/09/07 03:25:22;;;;;;;10.70;8.20;;;;;;;17.96;100.00;93479.59;5008198;28;20136;-82
2023/09/07 03:27:51;;;;;;;12.80;8.50;;;;;;;17.93;100.00;93487.91;5007790;28;20050;-83
2023/09/07 03:30:18;;;;;;;10.85;8.93;;;;;;;17.79;100.00;93468.56;5007616;28;20046;-81
2023/09/07 03:32:46;;;;;;;12.27;8.77;;;;;;;17.87;100.00;93479.28;5010118;28;20052;-82
2023/09/07 03:35:13;;;;;;;14.75;9.07;;;;;;;17.80;100.00;93462.34;5008014;28;20188;-82
2023/09/07 03:37:40;;;;;;;12.15;8.93;;;;;;;17.94;100.00;93489.47;5009570;28;20053;-81
2023/09/07 03:40:09;;;;;;;10.77;7.88;;;;;;;17.90;100.00;93484.00;5008812;28;20450;-82
2023/09/07 03:42:36;;;;;;;12.00;9.02;;;;;;;17.92;100.00;93494.16;5012588;28;20764;-81
2023/09/07 03:45:05;;;;;;;11.02;8.57;;;;;;;17.89;100.00;93494.63;5017816;28;20049;-81
2023/09/07 03:47:32;;;;;;;10.98;8.60;;;;;;;17.88;100.00;93503.47;5026175;28;20076;-81
2023/09/07 03:49:58;;;;;;;11.95;8.50;;;;;;;17.86;100.00;93493.31;5023728;28;20104;-81
2023/09/07 03:52:26;;;;;;;11.48;8.18;;;;;;;17.88;100.00;93500.88;5007638;28;20052;-81
2023/09/07 03:54:55;;;;;;;12.88;9.15;;;;;;;17.88;100.00;93501.63;5008046;28;20058;-81
2023/09/07 03:57:21;;;;;;;10.90;8.27;;;;;;;17.77;100.00;93495.59;5008437;28;20120;-81
2023/09/07 03:59:48;;;;;;;12.48;8.93;;;;;;;17.68;100.00;93481.47;5014696;28;20053;-83
2023/09/07 04:02:17;;;;;;;11.73;8.82;;;;;;;17.82;100.00;93513.03;5011525;28;20104;-81
2023/09/07 04:04:44;;;;;;;12.23;9.00;;;;;;;17.85;100.00;93511.75;5014927;28;20037;-81
2023/09/07 04:07:10;;;;;;;12.70;9.15;;;;;;;17.83;100.00;93504.19;5018886;28;20555;-81
2023/09/07 04:09:37;;;;;;;11.32;8.48;;;;;;;17.82;100.00;93507.06;5016438;28;20060;-81
2023/09/07 04:12:04;;;;;;;11.73;8.60;;;;;;;17.73;100.00;93494.50;5011156;28;20093;-81
2023/09/07 04:14:31;;;;;;;15.00;9.93;;;;;;;17.81;100.00;93514.06;5011354;28;20103;-81
2023/09/07 04:16:58;;;;;;;13.38;9.13;;;;;;;17.83;100.00;93521.63;5010778;28;20561;-81
2023/09/07 04:19:26;;;;;;;13.80;9.20;;;;;;;17.81;100.00;93515.88;5011565;28;20116;-82
2023/09/07 04:21:52;;;;;;;11.10;8.73;;;;;;;17.78;100.00;93517.16;5011045;28;20054;-82
2023/09/07 04:24:19;;;;;;;11.75;8.95;;;;;;;17.79;100.00;93518.72;5010776;28;20519;-82
2023/09/07 04:26:47;;;;;;;13.15;9.32;;;;;;;17.80;100.00;93520.28;5013404;28;20058;-81
2023/09/07 04:29:13;;;;;;;14.02;9.02;;;;;;;17.79;100.00;93517.94;5029573;28;20053;-80
2023/09/07 04:31:40;;;;;;;13.48;8.93;;;;;;;17.80;100.00;93519.50;5011833;28;20100;-80
2023/09/07 04:34:07;;;;;;;12.73;9.32;;;;;;;17.55;100.00;93482.66;5013953;28;20054;-80
2023/09/07 04:36:35;;;;;;;14.95;10.27;;;;;;;17.79;100.00;93513.53;5027841;28;20072;-79
2023/09/07 04:39:03;;;;;;;13.45;9.38;;;;;;;17.69;100.00;93496.03;5028438;28;20120;-79
2023/09/07 04:41:30;;;;;;;15.63;9.70;;;;;;;17.75;100.00;93509.84;5028387;28;20077;-78
2023/09/07 04:43:57;;;;;;;15.10;9.95;;;;;;;17.79;100.00;93518.72;5014610;28;20045;-78
2023/09/07 04:46:26;;;;;;;17.10;10.35;;;;;;;17.81;100.00;93521.09;5010753;28;20046;-79
2023/09/07 04:48:55;;;;;;;13.95;10.15;;;;;;;17.80;100.00;93516.91;5010334;28;20096;-79
2023/09/07 04:51:23;;;;;;;15.18;10.05;;;;;;;17.85;100.00;93509.94;5027445;28;20084;-79
2023/09/07 04:53:51;;;;;;;14.27;10.68;;;;;;;17.77;100.00;93487.78;5012066;28;20589;-78
2023/09/07 04:56:19;;;;;;;12.95;9.65;;;;;;;17.83;100.00;93506.78;5017407;28;20114;-78
2023/09/07 04:59:46;;;;;;;14.95;10.30;;;;;;;17.83;100.00;93498.22;5011350;28;20058;-78
2023/09/07 05:02:55;;;;;;;14.85;10.10;;;;;;;17.65;100.00;93481.19;5008006;28;20056;-79
2023/09/07 05:05:22;;;;;;;17.20;11.07;;;;;;;17.86;100.00;93510.72;4951308;28;20090;-78
2023/09/07 05:07:49;;;;;;;13.90;10.52;;;;;;;17.77;100.00;93487.78;5002293;28;20556;-77
2023/09/07 05:10:17;;;;;;;12.40;9.82;;;;;;;17.92;100.00;93508.94;5012393;28;20053;-77
2023/09/07 05:12:44;;;;;;;20.38;10.98;;;;;;;17.92;100.00;93503.75;5012822;28;20664;-78
2023/09/07 05:15:11;;;;;;;13.77;10.23;;;;;;;17.90;100.00;93506.59;5015751;28;20089;-79
2023/09/07 05:17:38;;;;;;;15.80;11.23;;;;;;;17.93;100.00;93505.31;5026375;28;20538;-78
2023/09/07 05:20:05;;;;;;;16.02;11.20;;;;;;;17.83;100.00;93499.00;5017259;28;20053;-80
2023/09/07 05:23:19;;;;;;;16.75;10.88;;;;;;;17.77;100.00;93487.78;5012135;28;20046;-79
2023/09/07 05:25:50;;;;;;;17.40;11.82;;;;;;;17.62;100.00;93461.69;5009982;28;20053;-78
2023/09/07 05:28:17;;;;;;;15.27;10.95;;;;;;;17.85;100.00;93520.34;5009977;28;20050;-79
2023/09/07 05:30:44;;;;;;;15.30;10.93;;;;;;;17.84;100.00;93508.38;5009916;28;20050;-79
2023/09/07 05:33:11;;;;;;;13.43;11.30;;;;;;;17.93;100.00;93510.50;5014160;28;20132;-78
2023/09/07 05:35:49;;;;;;;18.13;11.27;;;;;;;17.99;100.00;93510.31;5010796;28;20396;-78
2023/09/07 05:38:16;;;;;;;14.35;11.50;;;;;;;18.00;100.00;93530.06;5010843;28;20053;-78
2023/09/07 05:40:45;;;;;;;17.13;11.13;;;;;;;18.02;100.00;93509.78;5013658;28;20057;-78
2023/09/07 05:43:13;;;;;;;17.35;10.73;;;;;;;18.09;100.00;93516.66;5009879;28;20046;-78
2023/09/07 05:45:40;;;;;;;15.07;10.88;;;;;;;18.21;100.00;93530.25;5009498;28;20046;-78
2023/09/07 05:48:09;;;;;;;14.73;9.95;;;;;;;18.35;100.00;93529.81;5009945;28;20054;-78
2023/09/07 05:50:37;;;;;;;16.48;11.00;;;;;;;18.38;100.00;93531.94;5010341;28;20111;-78
2023/09/07 05:53:05;;;;;;;14.90;10.75;;;;;;;18.43;100.00;93542.38;5009383;28;20081;-78
2023/09/07 05:55:32;;;;;;;14.00;8.77;;;;;;;18.43;100.00;93534.56;5011916;28;20558;-78
2023/09/07 05:57:59;;;;;;;13.65;9.43;;;;;;;18.56;100.00;93533.31;5009029;28;20054;-77
2023/09/07 06:00:27;;;;;;;13.50;10.20;;;;;;;18.56;100.00;93528.13;5009467;28;20085;-77
2023/09/07 06:02:54;;;;;;;16.10;10.13;;;;;;;18.60;100.00;93531.78;5014685;28;20451;-77
2023/09/07 06:05:21;;;;;;;14.77;9.60;;;;;;;18.52;100.00;93530.44;5011710;28;20100;-78
2023/09/07 06:07:48;;;;;;;16.40;10.90;;;;;;;18.46;100.00;93530.69;5009225;28;20049;-77
2023/09/07 06:10:15;;;;;;;15.18;11.35;;;;;;;18.52;100.00;93537.47;5009653;28;20046;-78
2023/09/07 06:12:42;;;;;;;20.23;11.65;;;;;;;18.62;100.00;93534.94;5024503;28;20482;-78
2023/09/07 06:15:10;;;;;;;16.85;11.93;;;;;;;18.61;100.00;93509.94;5015462;28;20048;-77
2023/09/07 06:17:38;;;;;;;15.20;10.68;;;;;;;18.67;100.00;93527.16;5009023;28;20140;-78
2023/09/07 06:20:06;;;;;;;15.38;10.93;;;;;;;18.73;100.00;93514.16;5009134;28;20058;-78
2023/09/07 06:22:33;;;;;;;17.80;12.23;;;;;;;18.84;100.00;93526.19;5008485;28;20046;-78
2023/09/07 06:25:07;;;;;;;20.33;11.40;;;;;;;18.99;100.00;93542.91;5008931;28;20050;-78
2023/09/07 06:27:34;;;;;;;19.00;11.25;;;;;;;18.95;100.00;93506.22;5008499;28;20069;-77
2023/09/07 06:30:03;;;;;;;19.02;12.13;;;;;;;18.91;100.00;93487.72;5010409;28;20118;-78
2023/09/07 06:32:29;;;;;;;16.88;12.35;;;;;;;19.26;100.00;93534.19;5010804;28;20140;-77
2023/09/07 06:34:58;;;;;;;18.45;13.15;;;;;;;19.33;100.00;93539.94;5007998;28;20049;-78
2023/09/07 06:37:25;;;;;;;16.35;13.27;;;;;;;19.40;100.00;93542.31;5008407;28;20054;-77
2023/09/07 06:39:52;;;;;;;20.95;13.95;;;;;;;19.48;100.00;93545.19;5008484;28;20076;-78
2023/09/07 06:42:21;;;;;;;17.27;13.82;;;;;;;19.16;100.00;93490.69;5008887;28;20050;-78
2023/09/07 06:44:47;;;;;;;18.70;14.05;;;;;;;18.84;100.00;93432.50;5011364;28;20045;-78
2023/09/07 06:47:18;;;;;;;17.58;12.95;;;;;;;19.38;100.00;93505.34;5023214;28;20054;-77
2023/09/07 06:49:48;;;;;;;18.33;13.25;;;;;;;19.59;100.00;93521.78;5013463;28;20202;-78
2023/09/07 06:52:16;;;;;;;17.23;13.50;;;;;;;19.90;100.00;93551.28;5008206;28;20467;-78
2023/09/07 06:54:56;;;;;;;27.05;13.68;;;;;;;19.77;100.00;93515.28;5007696;28;20054;-79
2023/09/07 06:57:31;;;;;;;21.85;13.45;;;;;;;19.83;100.00;93522.06;5015702;28;20053;-79
2023/09/07 07:00:10;;;;;;;14.38;10.52;;;;;;;20.09;100.00;93560.44;5008583;28;20053;-79
2023/09/07 07:02:39;;;;;;;15.25;11.07;;;;;;;20.00;100.00;93536.72;5010298;28;20435;-78
2023/09/07 07:05:08;;;;;;;14.70;10.57;;;;;;;19.90;100.00;93520.00;5010033;28;20057;-79
2023/09/07 07:07:36;;;;;;;14.18;10.63;;;;;;;20.21;100.00;93542.69;5020113;28;20053;-79
2023/09/07 07:10:12;;;;;;;15.05;10.52;;;;;;;20.24;100.00;93544.00;5016744;28;20045;-79
2023/09/07 07:12:38;;;;;;;;;;;;;;;20.36;100.00;93554.94;5008631;28;20053;-78
2023/09/07 07:15:08;;;;;;;13.18;8.77;;;;;;;20.45;100.00;93551.81;5009031;28;19925;-80
2023/09/07 07:17:41;;;;;;;12.60;9.00;;;;;;;20.44;100.00;93524.94;5012885;28;20135;-80
2023/09/07 07:20:14;;;;;;;14.00;8.88;;;;;;;20.49;100.00;93495.44;5010006;28;20104;-80
2023/09/07 07:22:45;;;;;;;10.05;8.38;;;;;;;21.11;100.00;93559.78;5009585;28;20185;-80
2023/09/07 07:25:17;;;;;;;9.88;8.07;;;;;;;21.06;100.00;93532.63;5013981;28;20049;-79
2023/09/07 07:27:45;;;;;;;10.30;7.53;;;;;;;21.38;100.00;93566.47;5020622;28;20062;-79
2023/09/07 07:30:12;;;;;;;8.80;6.88;;;;;;;21.33;100.00;93543.75;5020727;28;20057;-79
2023/09/07 07:32:38;;;;;;;7.53;5.60;;;;;;;21.40;95.00;93573.00;5008055;28;20049;-79
2023/09/07 07:35:06;;;;;;;9.00;6.65;;;;;;;21.38;100.00;93564.63;5010377;28;20057;-80
2023/09/07 07:37:37;;;;;;;10.05;6.82;;;;;;;21.17;98.06;93530.78;5013529;28;20061;-79
2023/09/07 07:40:23;;;;;;;8.85;6.07;;;;;;;21.04;94.35;93568.69;5011541;28;20062;-79
2023/09/07 07:42:55;;;;;;;8.70;6.10;;;;;;;20.96;97.97;93551.75;5022116;28;20057;-79
2023/09/07 07:45:31;;;;;;;7.88;5.55;;;;;;;20.62;95.75;93504.53;5017025;28;20050;-80
2023/09/07 07:47:58;;;;;;;8.60;6.55;;;;;;;21.13;96.51;93568.91;5010417;28;20050;-79
2023/09/07 07:50:35;;;;;;;10.82;6.82;;;;;;;21.18;100.00;93553.22;5011629;28;20107;-80
2023/09/07 07:53:02;;;;;;;10.45;6.53;;;;;;;21.17;98.04;93569.16;5011469;28;20046;-79
2023/09/07 07:55:30;;;;;;;9.23;6.97;;;;;;;21.18;100.00;93560.28;5016976;28;20046;-81
2023/09/07 07:57:57;;;;;;;12.20;7.55;;;;;;;21.28;100.00;93562.09;5011309;28;20112;-80
2023/09/07 08:00:24;;;;;;;15.82;8.38;;;;;;;21.39;100.00;93560.19;5012658;28;20420;-79
2023/09/07 08:02:50;;;;;;;12.25;7.57;;;;;;;21.33;100.00;93544.53;5029208;28;20675;-80
2023/09/07 08:05:17;;;;;;;15.90;7.90;;;;;;;21.46;100.00;93569.31;5026701;28;20100;-79
2023/09/07 08:07:44;;;;;;;9.48;6.63;;;;;;;21.45;100.00;93565.13;5011036;28;20096;-79
2023/09/07 08:10:11;;;;;;;10.57;6.68;;;;;;;21.49;97.58;93576.59;5021863;28;20526;-80
2023/09/07 08:12:39;;;;;;;10.05;6.72;;;;;;;21.55;99.74;93571.34;5021679;28;20054;-79
2023/09/07 08:15:06;;;;;;;9.55;6.90;;;;;;;21.57;100.00;93574.50;5013392;28;20504;-80
2023/09/07 08:17:33;;;;;;;7.97;5.63;;;;;;;21.50;97.22;93569.53;5010915;28;20542;-79
2023/09/07 08:20:00;;;;;;;8.18;6.18;;;;;;;21.56;100.00;93578.91;5012851;28;20104;-80
2023/09/07 08:22:27;;;;;;;9.85;6.03;;;;;;;21.50;98.28;93569.53;5011704;28;20594;-80
2023/09/07 08:24:55;;;;;;;8.15;5.20;;;;;;;21.27;91.55;93563.09;5011389;28;20057;-79
2023/09/07 08:27:22;;;;;;;10.75;5.45;;;;;;;21.42;97.80;93567.50;5011138;28;20046;-79
2023/09/07 08:29:51;;;;;;;12.15;5.65;;;;;;;21.43;96.72;93566.44;5011239;28;20065;-80
2023/09/07 08:32:18;;;;;;;8.25;4.75;;;;;;;20.79;85.74;93574.72;5010786;28;20046;-78
2023/09/07 08:34:45;;;;;;;5.03;3.88;;;;;;;20.62;82.46;93562.75;5011917;28;20050;-78
2023/09/07 08:37:11;;;;;;;6.10;4.32;;;;;;;20.48;88.01;93567.72;5013547;28;20046;-80
2023/09/07 08:39:41;;;;;;;6.18;4.57;;;;;;;20.37;90.96;93553.13;5028013;28;20053;-80
2023/09/07 08:42:09;;;;;;;7.13;4.90;;;;;;;20.40;86.20;93576.88;5027946;28;20568;-81
2023/09/07 08:44:38;;;;;;;6.95;4.38;;;;;;;20.41;85.29;93575.06;5014167;28;20050;-81
2023/09/07 08:47:07;;;;;;;6.95;4.72;;;;;;;20.51;87.19;93563.81;5010503;28;20046;-80
2023/09/07 08:49:34;;;;;;;6.38;4.13;;;;;;;20.28;84.41;93566.69;5022591;28;20525;-80
2023/09/07 08:52:04;;;;;;;8.07;5.03;;;;;;;20.29;87.15;93570.84;5010711;28;20637;-79
2023/09/07 08:54:32;;;;;;;7.35;5.03;;;;;;;20.41;87.65;93562.00;5009926;28;20526;-81
2023/09/07 08:57:00;;;;;;;7.20;5.38;;;;;;;20.43;83.43;93565.88;5010611;28;20519;-81
2023/09/07 08:59:46;;;;;;;29.63;12.73;;;;;;;20.48;81.32;93543.47;5010019;28;20049;-80
2023/09/07 09:02:16;;;;;;;24.77;13.27;;;;;;;20.79;84.37;93570.28;5015999;28;20053;-80
2023/09/07 09:04:43;;;;;;;28.20;13.73;;;;;;;20.49;85.75;93561.47;5011929;28;20054;-78
2023/09/07 09:07:10;;;;;;;13.70;8.07;;;;;;;20.62;87.67;93562.75;5010229;28;20049;-79
2023/09/07 09:09:38;;;;;;;7.47;5.15;;;;;;;20.58;80.77;93585.19;5009988;28;20462;-80
2023/09/07 09:12:09;;;;;;;10.02;6.28;;;;;;;20.73;81.91;93560.91;5023650;28;20086;-80
2023/09/07 09:14:35;;;;;;;8.55;5.00;;;;;;;20.93;83.32;93561.94;5011992;28;20045;-81
2023/09/07 09:17:02;;;;;;;10.88;7.32;;;;;;;20.90;86.22;93552.00;5009646;28;20050;-81
2023/09/07 09:19:34;;;;;;;10.88;6.30;;;;;;;20.56;80.91;93558.59;5010205;28;20050;-80
2023/09/07 09:22:01;;;;;;;11.48;7.57;;;;;;;20.89;83.99;93576.56;5016836;28;20092;-81
2023/09/07 09:24:28;;;;;;;9.18;4.63;;;;;;;20.98;81.61;93568.97;5014331;28;20116;-80
2023/09/07 09:26:54;;;;;;;11.25;7.30;;;;;;;21.02;82.16;93575.22;5017014;28;20045;-80
2023/09/07 09:29:23;;;;;;;7.72;4.25;;;;;;;20.90;80.66;93576.31;5009651;28;20054;-80
2023/09/07 09:31:52;;;;;;;6.72;3.85;;;;;;;20.71;78.46;93591.72;5010078;28;20129;-80
2023/09/07 09:34:19;;;;;;;8.00;4.60;;;;;;;20.64;78.80;93581.53;5020089;28;20053;-80
2023/09/07 09:36:47;;;;;;;5.63;4.40;;;;;;;20.97;81.19;93573.41;5017392;28;20049;-79
2023/09/07 09:39:23;;;;;;;7.07;4.78;;;;;;;20.72;80.65;93572.38;5019725;28;20053;-79
2023/09/07 09:41:50;;;;;;;8.98;5.50;;;;;;;20.57;76.81;93552.31;5020893;28;20069;-79
2023/09/07 09:44:18;;;;;;;9.02;4.93;;;;;;;21.00;81.18;93566.84;5010499;28;20037;-80
2023/09/07 09:46:46;;;;;;;8.05;4.65;;;;;;;21.05;76.67;93577.28;5010338;28;20042;-82
2023/09/07 09:49:14;;;;;;;7.18;4.25;;;;;;;20.96;77.68;93583.06;5023533;28;20111;-81
2023/09/07 09:51:43;;;;;;;6.30;4.25;;;;;;;20.79;77.79;93564.28;5026913;28;20499;-83
2023/09/07 09:54:12;;;;;;;6.10;4.50;;;;;;;20.90;77.45;93584.13;5022330;28;20057;-81
2023/09/07 09:56:39;;;;;;;7.28;4.70;;;;;;;20.96;79.62;93585.69;5011139;28;20112;-82
2023/09/07 09:59:06;;;;;;;5.93;4.65;;;;;;;20.98;78.68;93577.59;5012044;28;20135;-82
2023/09/07 10:01:41;;;;;;;6.30;3.83;;;;;;;20.81;76.39;93547.31;5026013;28;20103;-80
2023/09/07 10:04:10;;;;;;;6.05;4.30;;;;;;;21.14;77.93;93578.31;5010168;28;20687;-83
2023/09/07 10:06:38;;;;;;;9.07;4.28;;;;;;;21.25;76.71;93581.69;5010714;28;20051;-81
2023/09/07 10:09:06;;;;;;;7.50;4.35;;;;;;;21.29;76.68;93564.41;5015583;28;20705;-78
2023/09/07 10:11:37;;;;;;;6.13;3.92;;;;;;;21.43;76.70;93579.53;5022420;28;20049;-81
2023/09/07 10:14:05;;;;;;;6.03;3.97;;;;;;;21.44;76.73;93574.00;5021511;28;20060;-83
2023/09/07 10:17:08;;;;;;;8.75;4.60;;;;;;;21.51;75.30;93570.34;5009814;28;20595;-81
2023/09/07 10:20:06;;;;;;;6.68;4.78;;;;;;;21.67;77.67;93578.88;5008243;28;20562;-83
2023/09/07 10:22:33;;;;;;;5.95;4.05;;;;;;;21.47;75.18;93581.31;5000203;28;20145;-80
2023/09/07 10:25:21;;;;;;;6.03;4.05;;;;;;;21.50;74.90;93580.00;5008906;28;20470;-80
2023/09/07 10:27:49;;;;;;;5.57;3.95;;;;;;;21.21;74.88;93551.91;5003998;28;20176;-84
2023/09/07 10:30:19;;;;;;;4.88;3.83;;;;;;;21.29;74.80;93582.69;5016491;28;20052;-81
2023/09/07 10:32:46;;;;;;;6.68;4.40;;;;;;;21.57;75.18;93587.56;5008920;28;20050;-82
2023/09/07 10:35:21;;;;;;;5.90;3.83;;;;;;;21.50;74.67;93564.31;5009108;28;20077;-83
2023/09/07 10:37:49;;;;;;;6.72;4.40;;;;;;;21.76;74.00;93567.59;5010121;28;20064;-83
2023/09/07 10:40:26;;;;;;;4.75;3.22;;;;;;;21.59;71.85;93572.38;5013286;28;20057;-82
2023/09/07 10:43:04;;;;;;;13.15;4.63;;;;;;;21.82;71.31;93580.63;5016299;28;20515;-83
2023/09/07 10:45:31;;;;;;;5.40;3.35;;;;;;;21.89;71.62;93583.72;5018918;28;20058;-83
2023/09/07 10:47:57;;;;;;;6.70;3.78;;;;;;;21.93;70.73;93584.75;5008392;28;20053;-81
2023/09/07 10:50:24;;;;;;;5.00;3.38;;;;;;;22.10;71.14;93579.16;5011972;28;20423;-81
2023/09/07 10:52:51;;;;;;;7.47;4.15;;;;;;;22.28;72.93;93572.47;5014478;28;20052;-83
2023/09/07 10:55:17;;;;;;;5.65;3.70;;;;;;;22.51;71.95;93577.25;5018841;28;20131;-82
2023/09/07 10:57:45;;;;;;;5.32;4.07;;;;;;;22.62;71.97;93573.53;5019079;28;20463;-82
2023/09/07 11:00:15;;;;;;;7.68;3.65;;;;;;;22.75;69.26;93581.78;5011917;28;20127;-82
2023/09/07 11:02:43;;;;;;;4.28;3.10;;;;;;;22.93;70.27;93573.22;5024056;28;20058;-83
2023/09/07 11:05:11;;;;;;;7.30;3.67;;;;;;;22.27;70.96;93549.22;5017303;28;20045;-83
2023/09/07 11:07:38;;;;;;;7.10;3.88;;;;;;;22.41;69.61;93573.66;5016368;28;20135;-84
2023/09/07 11:10:07;;;;;;;5.95;3.75;;;;;;;22.43;69.03;93566.34;5026034;28;20120;-82
2023/09/07 11:12:38;;;;;;;6.28;4.13;;;;;;;22.23;69.54;93575.16;5019200;28;20053;-84
2023/09/07 11:15:05;;;;;;;5.88;4.13;;;;;;;22.36;69.87;93578.19;5007141;28;20427;-82
2023/09/07 11:17:33;;;;;;;7.85;4.93;;;;;;;22.45;70.72;93573.91;5010671;28;20092;-83
2023/09/07 11:20:06;;;;;;;8.20;4.25;;;;;;;22.45;71.74;93573.91;5008993;28;20061;-81
2023/09/07 11:22:33;;;;;;;6.22;3.83;;;;;;;22.28;71.48;93571.69;5023921;28;20132;-81
2023/09/07 11:25:01;;;;;;;4.90;3.97;;;;;;;22.15;72.69;93552.97;5019894;28;20053;-82
2023/09/07 11:27:30;;;;;;;7.80;4.47;;;;;;;22.08;73.56;93564.78;5007937;28;20132;-81
2023/09/07 11:29:58;;;;;;;5.68;4.47;;;;;;;21.91;73.86;93541.63;5007798;28;20052;-83
2023/09/07 11:32:25;;;;;;;6.38;4.57;;;;;;;22.07;73.98;93558.00;5008628;28;20137;-81